Terminal Aerodrome Forecast
Issued by NWS Twin Cities, MN

Home | Current Version | Previous Version | Text Only | Print | Product List | Glossary On
Versions: 1 2 3 4 5 6 7 8 9 10 11
343
FTUS43 KMPX 261729
TAFEAU
TAF
KEAU 261729Z 2618/2718 34008KT P6SM -DZ SCT008 BKN012 OVC020
     FM270600 31010KT P6SM -DZSN BKN008 OVC015
     FM271700 29009KT P6SM OVC015=

USA.gov is the U.S. government's official web portal to all federal, state and local government web resources and services.